Time;durP1;ratioP1;P1;durP2;ratioP2;P2;SDS_P1;SDS_P2;PMS_P1;PMS_P2;Temp;Humidity;BMP_temperature;BMP_pressure;BME280_temperature;BME280_humidity;BME280_pressure;Samples;Min_cycle;Max_cycle;Signal;HPM_P1;HPM_P2
2022/06/25 00:00:05;;;;;;;7.80;7.07;;;;;;;21.15;100.00;99139.94;5069916;28;20314;-54
2022/06/25 00:02:32;;;;;;;8.52;7.47;;;;;;;21.12;100.00;99136.69;5070104;28;20242;-54
2022/06/25 00:07:45;;;;;;;7.57;7.15;;;;;;;20.98;100.00;99143.91;5069890;28;20712;-55
2022/06/25 00:10:12;;;;;;;12.88;7.95;;;;;;;21.06;100.00;99135.41;5069446;28;20278;-54
2022/06/25 00:12:38;;;;;;;7.53;6.93;;;;;;;21.09;100.00;99136.97;5069771;28;20578;-54
2022/06/25 00:15:06;;;;;;;8.82;7.78;;;;;;;21.13;100.00;99135.75;5069446;28;20315;-54
2022/06/25 00:17:34;;;;;;;9.93;8.00;;;;;;;21.07;100.00;99117.75;5068929;28;20200;-55
2022/06/25 00:20:01;;;;;;;8.45;7.65;;;;;;;21.01;100.00;99129.63;5069527;28;20314;-64
2022/06/25 00:22:28;;;;;;;8.23;7.63;;;;;;;20.87;100.00;99122.78;5069689;28;20675;-64
2022/06/25 00:24:56;;;;;;;7.93;7.30;;;;;;;20.81;100.00;99131.16;5069483;28;20204;-64
2022/06/25 00:27:23;;;;;;;7.80;7.30;;;;;;;20.98;100.00;99130.72;5069987;28;20298;-55
2022/06/25 00:29:51;;;;;;;9.55;7.82;;;;;;;20.98;100.00;99128.09;5069512;28;20198;-55
2022/06/25 00:32:18;;;;;;;8.15;7.40;;;;;;;20.93;100.00;99129.38;5069884;28;20735;-55
2022/06/25 00:34:45;;;;;;;7.97;7.15;;;;;;;20.92;100.00;99119.78;5069611;28;20227;-56
2022/06/25 00:37:13;;;;;;;11.40;7.80;;;;;;;20.87;100.00;99106.13;5069552;28;20728;-64
2022/06/25 00:39:40;;;;;;;8.00;7.40;;;;;;;20.78;100.00;99125.28;5069429;28;20224;-63
2022/06/25 00:42:12;;;;;;;8.73;8.02;;;;;;;20.79;100.00;99119.06;5069705;28;20274;-64
2022/06/25 00:44:39;;;;;;;8.45;7.68;;;;;;;20.89;100.00;99112.94;5069509;28;20204;-64
2022/06/25 00:47:09;;;;;;;8.32;7.43;;;;;;;20.93;100.00;99108.28;5069590;28;20196;-64
2022/06/25 00:49:36;;;;;;;9.13;8.23;;;;;;;21.02;100.00;99104.91;5069570;28;20621;-55
2022/06/25 00:52:08;;;;;;;9.95;7.28;;;;;;;21.07;100.00;99109.84;5069472;28;20298;-65
2022/06/25 00:54:38;;;;;;;8.10;7.50;;;;;;;21.07;100.00;99105.41;5069528;28;20200;-54
2022/06/25 00:57:07;;;;;;;8.40;7.70;;;;;;;20.92;100.00;99088.97;5069699;28;20734;-55
2022/06/25 00:59:38;;;;;;;8.13;7.43;;;;;;;20.93;100.00;99101.22;5069372;28;20234;-55
2022/06/25 01:02:05;;;;;;;8.95;7.95;;;;;;;20.96;100.00;99097.50;5069945;28;20200;-55
2022/06/25 01:04:32;;;;;;;8.10;7.53;;;;;;;20.91;100.00;99097.84;5069392;28;20243;-54
2022/06/25 01:07:00;;;;;;;8.38;7.72;;;;;;;20.85;100.00;99093.06;5069419;28;20606;-54
2022/06/25 01:09:27;;;;;;;9.90;8.93;;;;;;;20.80;100.00;99082.00;5069366;28;20604;-63
2022/06/25 01:11:54;;;;;;;10.10;8.95;;;;;;;20.83;100.00;99084.41;5069235;28;20200;-53
2022/06/25 01:14:21;;;;;;;9.02;8.27;;;;;;;20.90;100.00;99085.59;5069181;28;20200;-54
2022/06/25 01:16:49;;;;;;;8.32;7.63;;;;;;;20.72;100.00;99062.47;5069336;28;20192;-54
2022/06/25 01:19:16;;;;;;;8.02;7.40;;;;;;;20.78;100.00;99080.44;5069003;28;20232;-55
2022/06/25 01:21:44;;;;;;;7.90;7.20;;;;;;;20.77;100.00;99084.06;5069496;28;20593;-54
2022/06/25 01:24:13;;;;;;;8.32;7.57;;;;;;;20.69;100.00;99070.59;5072882;28;20196;-54
2022/06/25 01:26:41;;;;;;;9.35;6.90;;;;;;;20.69;100.00;99070.59;5072997;28;20631;-62
2022/06/25 01:29:09;;;;;;;8.00;7.25;;;;;;;20.78;100.00;99070.72;5073105;28;20206;-53
2022/06/25 01:31:36;;;;;;;7.03;6.38;;;;;;;20.83;100.00;99079.13;5072854;28;20642;-55
2022/06/25 01:34:04;;;;;;;8.10;6.72;;;;;;;20.88;100.00;99071.69;5072827;28;20222;-55
2022/06/25 01:36:31;;;;;;;7.57;6.63;;;;;;;20.89;100.00;99073.38;5072858;28;20592;-55
2022/06/25 01:38:58;;;;;;;7.07;6.57;;;;;;;20.93;100.00;99073.97;5072538;28;20224;-54
2022/06/25 01:41:26;;;;;;;7.88;7.18;;;;;;;20.82;100.00;99073.97;5072620;28;20210;-55
2022/06/25 01:43:53;;;;;;;7.97;7.25;;;;;;;20.76;100.00;99066.56;5072652;28;20261;-54
2022/06/25 01:46:21;;;;;;;7.85;7.05;;;;;;;20.79;100.00;99067.13;5072579;28;20212;-53
2022/06/25 01:48:48;;;;;;;7.47;6.82;;;;;;;20.79;100.00;99067.13;5072473;28;20216;-54
2022/06/25 01:51:16;;;;;;;7.70;7.00;;;;;;;20.76;100.00;99064.75;5072822;28;20664;-54
2022/06/25 01:53:43;;;;;;;7.82;6.80;;;;;;;20.67;100.00;99068.09;5072550;28;20195;-63
2022/06/25 01:56:10;;;;;;;7.63;7.03;;;;;;;20.69;100.00;99065.34;5072475;28;20211;-62
2022/06/25 01:58:38;;;;;;;7.43;6.93;;;;;;;20.64;100.00;99065.72;5072296;28;20672;-63
2022/06/25 02:01:06;;;;;;;7.68;7.07;;;;;;;20.57;100.00;99061.84;5072157;28;20283;-63
2022/06/25 02:03:33;;;;;;;9.93;8.63;;;;;;;20.35;100.00;99036.28;5072133;28;20200;-62
2022/06/25 02:06:00;;;;;;;8.38;7.50;;;;;;;20.39;100.00;99063.25;5072224;28;20196;-63
2022/06/25 02:08:30;;;;;;;9.38;7.75;;;;;;;20.28;100.00;99059.63;5072378;28;20286;-62
2022/06/25 02:10:58;;;;;;;8.25;7.53;;;;;;;20.26;100.00;99069.44;5072057;28;20199;-62
2022/06/25 02:13:25;;;;;;;7.63;6.93;;;;;;;20.24;100.00;99079.25;5072449;28;20228;-63
2022/06/25 02:15:55;;;;;;;12.15;7.68;;;;;;;20.16;100.00;99065.81;5071774;28;20230;-63
2022/06/25 02:18:23;;;;;;;7.70;7.10;;;;;;;20.20;100.00;99079.59;5072657;28;20660;-54
2022/06/25 02:20:50;;;;;;;7.70;7.20;;;;;;;20.20;100.00;99080.41;5072287;28;20230;-62
2022/06/25 02:23:18;;;;;;;8.10;7.40;;;;;;;20.27;100.00;99078.19;5072053;28;20287;-63
2022/06/25 02:25:45;;;;;;;9.35;7.53;;;;;;;20.24;100.00;99092.41;5071744;28;20253;-63
2022/06/25 02:28:12;;;;;;;8.48;7.50;;;;;;;20.25;100.00;99093.25;5072122;28;20589;-61
2022/06/25 02:30:40;;;;;;;9.68;6.88;;;;;;;20.26;100.00;99095.78;5072040;28;20283;-62
2022/06/25 02:33:11;;;;;;;8.45;7.03;;;;;;;20.37;100.00;99099.44;5071287;28;20290;-61
2022/06/25 02:35:39;;;;;;;8.40;6.63;;;;;;;20.43;100.00;99097.16;5071263;28;20287;-64
2022/06/25 02:38:06;;;;;;;8.20;6.25;;;;;;;20.46;100.00;99102.22;5071604;28;20674;-62
2022/06/25 02:40:33;;;;;;;8.05;6.90;;;;;;;20.51;100.00;99104.50;5071588;28;20709;-63
2022/06/25 02:43:01;;;;;;;7.07;6.43;;;;;;;20.48;100.00;99105.56;5071710;28;20198;-63
2022/06/25 02:45:28;;;;;;;8.13;6.45;;;;;;;20.48;100.00;99112.66;5071831;28;20204;-54
2022/06/25 02:47:56;;;;;;;6.20;5.55;;;;;;;20.50;100.00;99116.84;5071343;28;20235;-54
2022/06/25 02:50:24;;;;;;;6.22;5.68;;;;;;;20.51;100.00;99118.53;5071445;28;20191;-54
2022/06/25 02:52:51;;;;;;;6.88;6.28;;;;;;;20.50;100.00;99122.13;5070317;28;20288;-53
2022/06/25 02:55:19;;;;;;;7.20;6.60;;;;;;;20.50;100.00;99119.50;5070185;28;20196;-54
2022/06/25 03:00:35;;;;;;;6.45;5.80;;;;;;;20.35;100.00;99122.41;5012917;28;20218;-55
2022/06/25 03:03:02;;;;;;;6.28;5.78;;;;;;;20.31;100.00;99114.72;5069754;28;20192;-55
2022/06/25 03:05:30;;;;;;;5.78;5.38;;;;;;;20.39;100.00;99121.25;5069844;28;20206;-55
2022/06/25 03:07:57;;;;;;;6.20;5.63;;;;;;;20.46;100.00;99125.09;5070039;28;20641;-62
2022/06/25 03:10:24;;;;;;;6.13;5.53;;;;;;;20.38;100.00;99130.97;5067166;28;20192;-64
2022/06/25 03:12:51;;;;;;;6.63;5.97;;;;;;;20.40;100.00;99125.56;5067923;28;20212;-64
2022/06/25 03:15:18;;;;;;;6.20;5.80;;;;;;;20.45;100.00;99126.06;5069005;28;20604;-64
2022/06/25 03:17:45;;;;;;;10.10;5.80;;;;;;;20.48;100.00;99131.09;5069449;28;20192;-64
2022/06/25 03:20:12;;;;;;;10.23;6.00;;;;;;;20.56;100.00;99126.09;5067535;28;20255;-63
2022/06/25 03:22:40;;;;;;;5.85;5.45;;;;;;;20.58;100.00;99124.16;5069127;28;20576;-63
2022/06/25 03:25:08;;;;;;;6.22;5.72;;;;;;;20.74;100.00;99137.88;5069180;28;20297;-64
2022/06/25 03:27:35;;;;;;;6.93;5.82;;;;;;;20.90;100.00;99143.66;5069039;28;20196;-63
2022/06/25 03:30:03;;;;;;;8.52;5.50;;;;;;;21.09;100.00;99136.97;5069063;28;20703;-63
2022/06/25 03:32:31;;;;;;;11.02;5.90;;;;;;;21.13;100.00;99133.09;5069290;28;20242;-63
2022/06/25 03:34:58;;;;;;;10.23;5.78;;;;;;;21.19;99.82;99135.31;5069334;28;20258;-64
2022/06/25 03:37:25;;;;;;;7.15;5.47;;;;;;;21.40;98.39;99145.97;5067674;28;20618;-63
2022/06/25 03:39:53;;;;;;;7.82;5.47;;;;;;;21.29;98.17;99141.53;5068980;28;20216;-63
2022/06/25 03:42:20;;;;;;;5.60;5.10;;;;;;;21.44;97.84;99153.53;5066447;28;20192;-63
2022/06/25 03:44:47;;;;;;;5.97;5.38;;;;;;;21.57;96.69;99143.66;5068810;28;20274;-62
2022/06/25 03:47:14;;;;;;;5.40;5.10;;;;;;;21.69;95.28;99147.13;5069365;28;20196;-63
2022/06/25 03:49:41;;;;;;;6.15;5.68;;;;;;;21.91;93.60;99146.22;5066395;28;20253;-63
2022/06/25 03:52:08;;;;;;;6.35;5.35;;;;;;;21.93;93.24;99144.31;5068800;28;20290;-55
2022/06/25 03:54:36;;;;;;;5.88;5.47;;;;;;;22.63;89.35;99152.56;5068958;28;20581;-55
2022/06/25 03:57:05;;;;;;;6.05;5.18;;;;;;;24.35;78.30;99150.72;5068869;28;20158;-54
2022/06/25 03:59:32;;;;;;;5.53;5.03;;;;;;;25.81;69.24;99154.63;5068567;28;20707;-55
2022/06/25 04:01:59;;;;;;;5.30;4.80;;;;;;;26.14;66.12;99161.97;5069011;28;20296;-54
2022/06/25 04:04:26;;;;;;;5.00;4.60;;;;;;;25.63;67.54;99165.22;5067428;28;20300;-54
2022/06/25 04:06:53;;;;;;;5.00;4.55;;;;;;;25.07;70.18;99160.81;5066154;28;20271;-55
2022/06/25 04:09:20;;;;;;;4.75;4.50;;;;;;;25.42;69.22;99164.59;5068644;28;20201;-54
2022/06/25 04:11:47;;;;;;;6.10;5.10;;;;;;;26.58;63.56;99165.53;5068261;28;20292;-54
2022/06/25 04:14:15;;;;;;;5.13;4.60;;;;;;;28.48;56.63;99163.41;5068416;28;20202;-54
2022/06/25 04:16:42;;;;;;;5.00;4.47;;;;;;;29.71;52.10;99163.00;5068581;28;20196;-54
2022/06/25 04:19:09;;;;;;;4.55;4.13;;;;;;;31.20;47.32;99150.81;5068522;28;20195;-55
2022/06/25 04:21:36;;;;;;;4.95;4.65;;;;;;;32.29;44.21;99157.13;5079001;28;20222;-55
2022/06/25 04:24:03;;;;;;;4.40;4.07;;;;;;;33.18;41.70;99155.59;5089970;28;20195;-55
2022/06/25 04:26:30;;;;;;;4.78;4.38;;;;;;;34.32;38.88;99172.03;5089727;28;20191;-55
2022/06/25 04:29:08;;;;;;;4.78;4.28;;;;;;;35.33;37.20;99167.28;5087819;28;20195;-63
2022/06/25 04:31:37;;;;;;;6.80;4.30;;;;;;;36.21;35.30;99168.38;5069676;28;20215;-55
2022/06/25 04:34:05;;;;;;;7.20;5.78;;;;;;;36.81;33.98;99176.91;5070503;28;20200;-55
2022/06/25 04:36:32;;;;;;;5.15;4.00;;;;;;;37.55;33.00;99181.38;5068455;28;20199;-56
2022/06/25 04:38:59;;;;;;;5.95;4.90;;;;;;;37.80;32.23;99171.31;5068094;28;20199;-55
2022/06/25 04:41:26;;;;;;;4.38;3.92;;;;;;;37.99;31.66;99170.19;5068027;28;20306;-56
2022/06/25 04:43:53;;;;;;;5.78;4.38;;;;;;;38.51;31.06;99176.75;5065263;28;20199;-64
2022/06/25 04:46:20;;;;;;;6.43;6.03;;;;;;;39.40;30.05;99168.53;5068537;28;20345;-63
2022/06/25 04:48:48;;;;;;;4.28;4.03;;;;;;;39.93;29.16;99171.03;5068424;28;20214;-55
2022/06/25 04:51:15;;;;;;;5.28;4.82;;;;;;;38.96;29.39;99173.50;5065683;28;20199;-55
2022/06/25 04:53:56;;;;;;;8.90;4.22;;;;;;;38.76;30.05;99176.56;5063768;28;20203;-55
2022/06/25 04:56:24;;;;;;;14.48;13.18;;;;;;;39.47;29.14;99183.69;5066474;28;20199;-55
2022/06/25 04:58:51;;;;;;;7.57;5.25;;;;;;;40.34;28.19;99191.66;5072059;28;20286;-63
2022/06/25 05:01:18;;;;;;;8.35;6.72;;;;;;;40.59;27.86;99188.56;5072627;28;20698;-63
2022/06/25 05:03:45;;;;;;;4.70;4.32;;;;;;;40.55;27.60;99190.13;5072261;28;20214;-64
2022/06/25 05:06:14;;;;;;;6.10;5.60;;;;;;;40.51;27.66;99187.09;5072022;28;20195;-64
2022/06/25 05:08:41;;;;;;;5.82;4.22;;;;;;;39.91;28.29;99193.03;5071901;28;20210;-65
2022/06/25 05:11:08;;;;;;;5.88;4.85;;;;;;;40.20;28.09;99182.13;5072044;28;20200;-64
2022/06/25 05:13:35;;;;;;;4.43;4.13;;;;;;;40.02;28.21;99169.59;5071903;28;20278;-64
2022/06/25 05:16:02;;;;;;;5.25;4.82;;;;;;;40.91;26.82;99189.66;5072399;28;20231;-65
2022/06/25 05:18:29;;;;;;;4.70;4.50;;;;;;;41.60;26.45;99189.31;5073176;28;20695;-62
2022/06/25 05:20:56;;;;;;;5.60;4.57;;;;;;;42.23;25.36;99191.41;5072917;28;20222;-63
2022/06/25 05:23:24;;;;;;;4.88;4.47;;;;;;;42.07;25.96;99181.44;5073038;28;20202;-62
2022/06/25 05:25:51;;;;;;;5.38;4.25;;;;;;;40.06;27.78;99172.66;5072984;28;20199;-65
2022/06/25 05:28:18;;;;;;;5.78;5.35;;;;;;;37.43;31.56;99174.00;5073366;28;20294;-63
2022/06/25 05:30:46;;;;;;;8.25;6.10;;;;;;;35.33;34.85;99165.41;5070016;28;20198;-62
2022/06/25 05:33:13;;;;;;;6.80;5.40;;;;;;;34.13;37.63;99174.47;5069682;28;20693;-61
2022/06/25 05:35:40;;;;;;;9.15;8.50;;;;;;;33.11;39.71;99168.16;5071505;28;20204;-61
2022/06/25 05:38:08;;;;;;;11.23;6.78;;;;;;;32.54;41.93;99162.94;5072316;28;20598;-61
2022/06/25 05:40:36;;;;;;;6.72;6.13;;;;;;;32.42;42.79;99162.63;5077773;28;20318;-64
2022/06/25 05:43:04;;;;;;;7.78;6.38;;;;;;;32.68;42.31;99162.03;5092801;28;20195;-61
2022/06/25 05:45:31;;;;;;;13.93;6.15;;;;;;;32.66;42.53;99148.78;5092848;28;20195;-68
2022/06/25 05:47:58;;;;;;;6.15;5.63;;;;;;;33.09;41.24;99160.28;5092675;28;20191;-62
2022/06/25 05:50:25;;;;;;;5.75;5.30;;;;;;;34.13;38.74;99173.63;5092866;28;20187;-61
2022/06/25 05:52:53;;;;;;;6.10;5.60;;;;;;;34.32;37.53;99178.25;5092661;28;20207;-61
2022/06/25 05:55:20;;;;;;;5.47;5.07;;;;;;;33.35;39.23;99189.25;5092799;28;20198;-62
2022/06/25 05:57:48;;;;;;;7.30;5.20;;;;;;;32.73;41.19;99181.13;5092900;28;20196;-62
2022/06/25 06:00:16;;;;;;;6.50;5.53;;;;;;;32.49;41.87;99178.81;5092582;28;20310;-62
2022/06/25 06:02:44;;;;;;;5.55;5.15;;;;;;;31.42;44.08;99183.09;5092686;28;20682;-63
2022/06/25 06:05:11;;;;;;;6.55;5.93;;;;;;;30.64;46.32;99192.41;5092461;28;20207;-63
2022/06/25 06:07:38;;;;;;;6.53;6.05;;;;;;;30.29;47.49;99183.09;5092572;28;20195;-63
2022/06/25 06:10:06;;;;;;;8.18;6.97;;;;;;;29.99;48.76;99187.47;5061394;28;20211;-62
2022/06/25 06:12:33;;;;;;;6.18;5.75;;;;;;;29.54;49.34;99185.47;5071166;28;20668;-63
2022/06/25 06:15:01;;;;;;;6.85;6.05;;;;;;;29.21;50.86;99190.91;5091972;28;20231;-62
2022/06/25 06:17:28;;;;;;;6.93;6.13;;;;;;;28.60;52.55;99180.75;5071585;28;20298;-62
2022/06/25 06:19:55;;;;;;;6.50;5.85;;;;;;;28.18;55.04;99189.75;5070203;28;20204;-62
2022/06/25 06:22:22;;;;;;;6.22;5.72;;;;;;;27.84;56.88;99186.28;5070611;28;20217;-62
2022/06/25 06:24:49;;;;;;;7.30;6.65;;;;;;;27.96;57.11;99185.00;5070816;28;20202;-62
2022/06/25 06:27:16;;;;;;;14.02;6.50;;;;;;;28.10;56.89;99189.66;5070530;28;20231;-62
2022/06/25 06:29:43;;;;;;;7.30;6.70;;;;;;;28.43;55.73;99187.94;5070929;28;20699;-62
2022/06/25 06:32:11;;;;;;;10.65;6.95;;;;;;;28.70;55.17;99188.59;5070533;28;20269;-62
2022/06/25 06:34:38;;;;;;;10.85;6.93;;;;;;;28.95;54.34;99190.28;5070650;28;20200;-62
2022/06/25 06:37:06;;;;;;;9.32;6.53;;;;;;;28.56;55.34;99186.63;5070772;28;20592;-63
2022/06/25 06:39:33;;;;;;;6.53;5.97;;;;;;;28.16;56.96;99190.88;5070734;28;20752;-55
2022/06/25 06:42:00;;;;;;;6.78;6.28;;;;;;;28.11;57.16;99178.00;5069302;28;20229;-54
2022/06/25 06:44:27;;;;;;;8.20;6.53;;;;;;;27.98;57.29;99185.66;5069408;28;20241;-54
2022/06/25 06:46:53;;;;;;;7.15;6.45;;;;;;;27.45;58.78;99177.91;5070846;28;20204;-53
2022/06/25 06:49:22;;;;;;;11.23;6.28;;;;;;;27.21;61.51;99183.13;5071301;28;20613;-56
2022/06/25 06:51:49;;;;;;;6.57;5.95;;;;;;;27.19;61.96;99177.97;5070543;28;20731;-55
2022/06/25 06:54:15;;;;;;;7.10;6.43;;;;;;;27.16;62.02;99182.78;5070693;28;20196;-62
2022/06/25 06:56:42;;;;;;;7.60;6.85;;;;;;;27.00;62.96;99180.84;5069364;28;20192;-63
2022/06/25 06:59:09;;;;;;;8.30;6.35;;;;;;;26.90;63.30;99174.75;5069485;28;20192;-62
2022/06/25 07:01:36;;;;;;;10.65;7.13;;;;;;;26.99;63.16;99176.50;5070196;28;20223;-62
2022/06/25 07:04:03;;;;;;;7.93;7.32;;;;;;;26.99;63.34;99173.84;5069530;28;20279;-62
2022/06/25 07:06:32;;;;;;;8.43;6.57;;;;;;;27.08;63.45;99170.25;5069588;28;20694;-61
2022/06/25 07:08:58;;;;;;;8.63;6.93;;;;;;;27.16;63.07;99170.28;5070260;28;20195;-60
2022/06/25 07:11:32;;;;;;;9.18;5.95;;;;;;;27.27;62.92;99172.69;5068950;28;20200;-61
2022/06/25 07:14:01;;;;;;;8.20;6.70;;;;;;;27.65;61.44;99173.22;5067488;28;20196;-55
2022/06/25 07:16:29;;;;;;;12.43;6.25;;;;;;;28.49;58.88;99175.75;5068375;28;20775;-55
2022/06/25 07:18:57;;;;;;;8.65;5.97;;;;;;;29.37;55.70;99182.00;5068929;28;20203;-61
2022/06/25 07:21:24;;;;;;;6.63;6.03;;;;;;;29.89;53.08;99182.31;5068581;28;20680;-61
2022/06/25 07:23:52;;;;;;;7.18;6.60;;;;;;;30.18;52.18;99181.66;5069209;28;20243;-62
2022/06/25 07:26:20;;;;;;;8.05;6.80;;;;;;;30.45;51.65;99176.78;5070756;28;20242;-62
2022/06/25 07:28:47;;;;;;;12.73;6.47;;;;;;;31.00;50.18;99171.13;5070897;28;20196;-61
2022/06/25 07:31:14;;;;;;;7.82;6.60;;;;;;;31.13;49.85;99170.53;5070447;28;20199;-61
2022/06/25 07:33:41;;;;;;;7.53;6.82;;;;;;;31.24;48.94;99162.84;5070302;28;20308;-61
2022/06/25 07:36:08;;;;;;;6.78;6.30;;;;;;;30.92;49.05;99169.38;5070798;28;20200;-62
2022/06/25 07:38:35;;;;;;;6.68;6.10;;;;;;;31.18;47.99;99170.78;5070287;28;20198;-62
2022/06/25 07:41:04;;;;;;;8.95;8.18;;;;;;;31.36;48.42;99180.16;5070376;28;20215;-61
2022/06/25 07:43:31;;;;;;;8.05;7.38;;;;;;;31.44;48.35;99179.22;5070232;28;20257;-61
2022/06/25 07:45:59;;;;;;;6.63;5.97;;;;;;;31.31;47.73;99184.41;5069967;28;20202;-62
2022/06/25 07:48:26;;;;;;;9.18;5.80;;;;;;;32.27;45.03;99186.06;5070212;28;20601;-61
2022/06/25 07:53:37;;;;;;;5.05;4.53;;;;;;;33.83;39.79;99187.44;5070173;28;20297;-61
2022/06/25 07:56:06;;;;;;;7.93;6.70;;;;;;;33.99;38.59;99185.41;5069980;28;20287;-62
2022/06/25 07:58:34;;;;;;;5.97;5.57;;;;;;;34.38;37.93;99176.63;5070109;28;20626;-62
2022/06/25 08:01:01;;;;;;;6.53;5.53;;;;;;;34.56;37.54;99183.06;5069641;28;20227;-62
2022/06/25 08:03:28;;;;;;;6.75;6.22;;;;;;;33.74;38.40;99193.19;5069739;28;20192;-61
2022/06/25 08:05:56;;;;;;;7.75;5.78;;;;;;;33.02;39.56;99183.63;5069844;28;20211;-62
2022/06/25 08:08:22;;;;;;;5.43;5.13;;;;;;;33.09;39.97;99189.03;5070136;28;20196;-62
2022/06/25 08:10:49;;;;;;;5.75;5.35;;;;;;;33.02;39.89;99186.31;5069791;28;20207;-62
2022/06/25 08:13:18;;;;;;;6.65;5.10;;;;;;;33.88;39.05;99184.13;5069575;28;20278;-62
2022/06/25 08:15:45;;;;;;;7.32;4.55;;;;;;;34.59;38.46;99184.53;5069527;28;20711;-61
2022/06/25 08:18:12;;;;;;;4.82;4.55;;;;;;;34.70;37.50;99191.16;5069470;28;20200;-62
2022/06/25 08:20:39;;;;;;;10.25;4.60;;;;;;;34.12;38.42;99185.44;5069471;28;20304;-63
2022/06/25 08:23:06;;;;;;;5.43;4.80;;;;;;;33.87;38.68;99175.22;5069702;28;20672;-61
2022/06/25 08:25:33;;;;;;;5.32;4.78;;;;;;;33.79;38.67;99180.78;5069700;28;20871;-61
2022/06/25 08:28:00;;;;;;;5.60;5.10;;;;;;;33.02;39.74;99170.19;5069356;28;20282;-61
2022/06/25 08:30:29;;;;;;;5.13;4.82;;;;;;;33.15;41.41;99172.13;5069254;28;20218;-61
2022/06/25 08:32:56;;;;;;;5.82;5.03;;;;;;;33.67;38.08;99173.44;5063079;28;20300;-61
2022/06/25 08:35:23;;;;;;;5.25;4.75;;;;;;;33.73;37.93;99165.44;5050415;28;20226;-61
2022/06/25 08:37:51;;;;;;;5.40;5.00;;;;;;;33.58;38.17;99171.97;5049115;28;20252;-61
2022/06/25 08:40:20;;;;;;;5.20;4.75;;;;;;;33.34;38.72;99173.28;5048963;28;20224;-62
2022/06/25 08:42:48;;;;;;;5.00;4.60;;;;;;;33.46;39.81;99169.03;5048825;28;20311;-62
2022/06/25 08:45:16;;;;;;;5.70;5.30;;;;;;;33.22;39.16;99174.84;5049152;28;20758;-61
2022/06/25 08:47:46;;;;;;;5.22;4.93;;;;;;;32.94;39.48;99175.72;5048918;28;20224;-62
2022/06/25 08:50:15;;;;;;;7.03;5.75;;;;;;;32.65;40.68;99167.78;5048994;28;20696;-62
2022/06/25 08:52:47;;;;;;;6.03;5.40;;;;;;;32.64;42.61;99175.00;5048584;28;20645;-62
2022/06/25 08:55:22;;;;;;;7.45;6.78;;;;;;;32.44;42.02;99172.16;5054798;28;20231;-61
2022/06/25 08:57:49;;;;;;;5.72;5.18;;;;;;;31.97;42.91;99167.31;5069039;28;20219;-62
2022/06/25 09:00:17;;;;;;;5.70;5.20;;;;;;;31.77;42.86;99170.78;5068816;28;20220;-61
2022/06/25 09:02:45;;;;;;;6.05;5.45;;;;;;;32.08;45.50;99153.38;5068665;28;20236;-62
2022/06/25 09:05:12;;;;;;;6.25;5.82;;;;;;;32.02;42.98;99150.63;5069187;28;20220;-62
2022/06/25 09:07:39;;;;;;;5.57;5.10;;;;;;;32.58;42.34;99143.56;5068352;28;20228;-62
2022/06/25 09:10:06;;;;;;;7.90;5.53;;;;;;;32.76;41.50;99143.09;5068652;28;20315;-62
2022/06/25 09:12:34;;;;;;;5.35;4.82;;;;;;;33.19;41.11;99147.31;5069115;28;20220;-63
2022/06/25 09:15:01;;;;;;;15.80;6.05;;;;;;;33.13;41.44;99148.13;5068663;28;20247;-62
2022/06/25 09:17:28;;;;;;;7.15;5.45;;;;;;;33.15;40.18;99153.31;5068362;28;20219;-62
2022/06/25 09:19:57;;;;;;;5.50;5.20;;;;;;;33.28;40.28;99157.97;5069115;28;20791;-62
2022/06/25 09:22:25;;;;;;;8.15;5.03;;;;;;;33.16;40.11;99154.97;5069308;28;20700;-62
2022/06/25 09:24:55;;;;;;;5.85;5.35;;;;;;;33.24;40.30;99154.81;5068966;28;20261;-62
2022/06/25 09:27:36;;;;;;;6.35;5.95;;;;;;;33.01;40.31;99152.38;5069355;28;20200;-62
2022/06/25 09:30:09;;;;;;;8.07;6.15;;;;;;;33.15;40.14;99156.00;5068980;28;20714;-62
2022/06/25 09:32:42;;;;;;;7.05;6.40;;;;;;;33.14;40.94;99151.63;5068986;28;20198;-63
2022/06/25 09:35:12;;;;;;;15.55;14.45;;;;;;;33.27;40.14;99151.75;5068597;28;20208;-62
2022/06/25 09:37:40;;;;;;;13.02;11.68;;;;;;;33.50;39.58;99154.97;5068893;28;20204;-62
2022/06/25 09:40:09;;;;;;;5.43;5.03;;;;;;;32.91;39.04;99146.53;5062290;28;20200;-62
2022/06/25 09:42:37;;;;;;;5.72;5.15;;;;;;;32.53;39.98;99139.78;5054376;28;20282;-55
2022/06/25 09:45:09;;;;;;;5.63;5.30;;;;;;;32.51;40.55;99139.16;5052671;28;20211;-63
2022/06/25 09:47:43;;;;;;;5.93;5.20;;;;;;;32.47;41.03;99136.03;5052621;28;20209;-63
2022/06/25 09:50:14;;;;;;;5.97;5.45;;;;;;;33.01;39.76;99130.03;5052722;28;20279;-63
2022/06/25 09:52:52;;;;;;;5.45;5.15;;;;;;;32.98;38.58;99138.50;5052473;28;20199;-64
2022/06/25 09:55:19;;;;;;;9.10;4.82;;;;;;;33.37;38.41;99128.00;5052394;28;20287;-63
2022/06/25 09:57:47;;;;;;;6.15;4.88;;;;;;;33.60;37.71;99143.00;5052391;28;20197;-64
2022/06/25 10:00:16;;;;;;;5.03;4.45;;;;;;;33.92;37.08;99144.16;5052169;28;20283;-64
2022/06/25 10:02:43;;;;;;;4.60;4.35;;;;;;;33.91;35.98;99145.19;5052274;28;20235;-63
2022/06/25 10:05:13;;;;;;;7.70;4.65;;;;;;;33.87;36.86;99136.69;5052228;28;20199;-63
2022/06/25 10:08:01;;;;;;;5.30;5.00;;;;;;;34.08;37.01;99138.44;5052189;28;20279;-65
2022/06/25 10:10:31;;;;;;;7.38;5.32;;;;;;;33.84;37.58;99132.56;5052263;28;20250;-63
2022/06/25 10:12:58;;;;;;;6.40;4.72;;;;;;;34.05;36.71;99133.44;5052104;28;20189;-53
2022/06/25 10:15:25;;;;;;;5.78;4.70;;;;;;;34.11;37.12;99130.75;5052072;28;20228;-55
2022/06/25 10:17:53;;;;;;;5.60;5.10;;;;;;;34.13;36.29;99142.16;5052025;28;20196;-55
2022/06/25 10:20:24;;;;;;;4.80;4.57;;;;;;;33.62;36.73;99127.50;5052104;28;20204;-55
2022/06/25 10:22:52;;;;;;;5.93;5.38;;;;;;;33.43;36.81;99121.81;5051735;28;20228;-55
2022/06/25 10:25:23;;;;;;;6.55;4.80;;;;;;;33.41;38.31;99131.13;5052132;28;20589;-54
2022/06/25 10:27:52;;;;;;;5.68;5.20;;;;;;;33.30;38.45;99131.66;5051850;28;20212;-54
2022/06/25 10:30:44;;;;;;;4.82;4.53;;;;;;;33.19;38.46;99125.78;5051676;28;20203;-54
2022/06/25 10:33:12;;;;;;;4.90;4.68;;;;;;;33.33;39.55;99125.91;5051673;28;20192;-55
2022/06/25 10:35:41;;;;;;;5.45;4.97;;;;;;;33.17;38.72;99119.81;5051084;28;20226;-54
2022/06/25 10:38:10;;;;;;;4.68;4.38;;;;;;;33.19;39.31;99108.81;5051550;28;20202;-55
2022/06/25 10:40:57;;;;;;;5.35;4.97;;;;;;;33.16;39.63;99118.13;5051769;28;20201;-55
2022/06/25 10:43:41;;;;;;;6.13;4.90;;;;;;;33.12;39.64;99121.41;5051584;28;20228;-55
2022/06/25 10:46:29;;;;;;;5.72;4.43;;;;;;;33.06;39.08;99120.38;5051311;28;20208;-54
2022/06/25 10:49:06;;;;;;;5.07;4.82;;;;;;;32.93;39.80;99112.22;5051353;28;20210;-54
2022/06/25 10:51:43;;;;;;;5.15;4.78;;;;;;;32.77;38.06;99096.38;5051692;28;20196;-54
2022/06/25 10:54:15;;;;;;;5.78;4.90;;;;;;;32.95;38.77;99094.03;5050998;28;20199;-54
2022/06/25 10:56:46;;;;;;;5.30;4.90;;;;;;;32.93;39.18;99096.09;5051075;28;20254;-63
2022/06/25 10:59:49;;;;;;;5.32;4.82;;;;;;;32.48;38.44;99092.00;5051130;28;20291;-63
2022/06/25 11:02:20;;;;;;;7.40;6.80;;;;;;;32.51;39.13;99093.50;5051080;28;20216;-63
2022/06/25 11:04:52;;;;;;;5.47;5.07;;;;;;;32.86;38.84;99091.66;5051114;28;20205;-54
2022/06/25 11:07:22;;;;;;;5.95;5.35;;;;;;;33.13;38.55;99090.81;5051152;28;20216;-54
2022/06/25 11:09:54;;;;;;;6.22;5.05;;;;;;;33.50;38.14;99103.00;5051063;28;20295;-62
2022/06/25 11:12:22;;;;;;;5.72;5.07;;;;;;;33.61;37.21;99097.06;5051254;28;20609;-63
2022/06/25 11:14:50;;;;;;;5.80;5.35;;;;;;;33.84;37.29;99094.88;5050979;28;20363;-64
2022/06/25 11:17:17;;;;;;;10.93;9.95;;;;;;;33.77;38.05;99094.00;5050725;28;20211;-62
2022/06/25 11:19:44;;;;;;;10.43;9.50;;;;;;;33.63;37.56;99095.00;5051213;28;20259;-63
2022/06/25 11:22:11;;;;;;;7.50;6.78;;;;;;;33.66;37.88;99082.97;5050644;28;20226;-63
2022/06/25 11:28:47;;;;;;;5.28;4.93;;;;;;;33.57;38.19;99084.19;5051077;28;20280;-62
2022/06/25 11:30:14;;;;;;;5.70;5.40;;;;;;;33.76;37.64;99081.56;5050748;28;20196;-62
2022/06/25 11:32:45;;;;;;;5.50;5.20;;;;;;;33.68;37.71;99072.84;5050566;28;20200;-54
2022/06/25 11:35:13;;;;;;;6.95;5.43;;;;;;;33.70;36.81;99070.78;5050827;28;20209;-53
2022/06/25 11:37:40;;;;;;;5.70;5.20;;;;;;;33.67;36.38;99063.09;5050646;28;20200;-54
2022/06/25 11:40:15;;;;;;;5.47;4.95;;;;;;;33.58;36.76;99050.84;5050411;28;20280;-55
2022/06/25 11:42:42;;;;;;;6.63;6.18;;;;;;;33.81;37.98;99062.97;5064625;28;20215;-55
2022/06/25 11:45:10;;;;;;;7.78;5.40;;;;;;;33.83;37.52;99058.22;5068929;28;20204;-55